LFBT/LDE METAR and TAF weather

Enter ICAO airport designator
Station Type Date Time Source
LFBT METAR 2019/02/20 17:30 UTC NOAA

LFBT 201730Z AUTO 02003KT CAVOK 12/05 Q1023 NOSIG


Station Type Date Time Source
LFBT Decoded METAR 2019/02/20 17:30 UTC NOAA

Tarbes Ossun Lourdes, France (LFBT) 43-11N 000-00W 363M
Feb 20, 2019 - 12:30 PM EST / 2019.02.20 1730 UTC
Wind: from the NNE (020 degrees) at 3 MPH (3 KT):0
Visibility: greater than 7 mile(s):0
Temperature: 53 F (12 C)
Dew Point: 41 F (5 C)
Relative Humidity: 62%
Pressure (altimeter): 30.21 in. Hg (1023 hPa)
ob: LFBT 201730Z AUTO 02003KT CAVOK 12/05 Q1023 NOSIG
cycle: 17

Station Type Date Time Source
LFBT TAF 2019/02/20 18:21 UTC NOAA

TAF LFBT 201700Z 2018/2118 01008KT CAVOK
BECMG 2020/2022 18005KT


Example: see airport list